ADDS METAR Data INFO
IDs: Format: Raw Decoded Include TAF

Data at: 1316 UTC 11 Dec 2017

KRHP 111300Z AUTO 00000KT 10SM CLR M07/M07 A3018 RMK AO2 T10661068
KRHP 111240Z AUTO 00000KT 10SM CLR M06/M07 A3018 RMK AO2 T10651068
KRHP 111220Z AUTO 00000KT 10SM CLR M07/M07 A3018 RMK AO2 T10711074
KRHP 111200Z AUTO 00000KT 10SM CLR M06/M07 A3017 RMK AO2 T10651068
KRHP 111140Z AUTO 00000KT 10SM CLR M07/M07 A3017 RMK AO2 T10691073
KRHP 111120Z AUTO 00000KT 10SM CLR M07/M07 A3016 RMK AO2 T10661070
KRHP 111100Z AUTO 00000KT 10SM CLR M06/M07 A3017 RMK AO2 T10651071
KRHP 111040Z AUTO 00000KT 10SM CLR M06/M06 A3016 RMK AO2 T10631065
KRHP 111020Z AUTO 00000KT 10SM CLR M06/M07 A3016 RMK AO2 T10641066
KRHP 111000Z AUTO 00000KT 10SM CLR M06/M06 A3016 RMK AO2 T10601063
KRHP 110940Z AUTO 00000KT 10SM CLR M06/M06 A3017 RMK AO2 T10631065
KRHP 110920Z AUTO 00000KT 10SM CLR M06/M06 A3017 RMK AO2 T10611064
KRHP 110900Z AUTO 00000KT 10SM CLR M06/M06 A3018 RMK AO2 T10591062
KRHP 110840Z AUTO 00000KT 10SM CLR M06/M06 A3018 RMK AO2 T10581061
KRHP 110820Z AUTO 00000KT 10SM CLR M06/M06 A3018 RMK AO2 T10611064
KRHP 110800Z AUTO 00000KT 10SM CLR M06/M06 A3018 RMK AO2 T10561058
KRHP 110740Z AUTO 00000KT 10SM CLR M06/M06 A3018 RMK AO2 T10581061
KRHP 110720Z AUTO 00000KT 10SM CLR M06/M07 A3019 RMK AO2 T10651070
KRHP 110700Z AUTO 00000KT 10SM CLR M05/M06 A3020 RMK AO2 T10541056
KRHP 110640Z AUTO 00000KT 10SM CLR M05/M05 A3020 RMK AO2 T10511053
KRHP 110620Z AUTO 00000KT 10SM CLR M06/M06 A3021 RMK AO2 T10561059
KRHP 110600Z AUTO 00000KT 10SM CLR M06/M06 A3021 RMK AO2 T10561060
KRHP 110540Z AUTO 00000KT 10SM CLR M05/M06 A3022 RMK AO2 T10541059
KRHP 110520Z AUTO 00000KT 10SM CLR M05/M06 A3022 RMK AO2 T10531058
KRHP 110500Z AUTO 00000KT 10SM CLR M05/M05 A3022 RMK AO2 T10501052
KRHP 110440Z AUTO 00000KT 10SM CLR M05/M05 A3022 RMK AO2 T10501053
KRHP 110420Z AUTO 00000KT 10SM CLR M05/M05 A3022 RMK AO2 T10461050
KRHP 110400Z AUTO 00000KT 10SM CLR M04/M05 A3023 RMK AO2 T10441049
KRHP 110340Z AUTO 00000KT 10SM CLR M05/M05 A3023 RMK AO2 T10471053
KRHP 110320Z AUTO 00000KT 10SM CLR M05/M05 A3022 RMK AO2 T10471052
KRHP 110300Z AUTO 00000KT 10SM CLR M04/M04 A3022 RMK AO2 T10391045
KRHP 110240Z AUTO 00000KT 10SM CLR M04/M05 A3021 RMK AO2 T10451050
KRHP 110220Z AUTO 00000KT 10SM CLR M04/M04 A3020 RMK AO2 T10361041
KRHP 110200Z AUTO 00000KT 10SM CLR M04/M04 A3020 RMK AO2 T10371045
KRHP 110140Z AUTO 00000KT 10SM CLR M03/M05 A3019 RMK AO2 T10341046
KRHP 110120Z AUTO 00000KT 10SM CLR M04/M04 A3018 RMK AO2 T10361045
KRHP 110100Z AUTO 00000KT 10SM CLR M03/M04 A3018 RMK AO2 T10291041
KRHP 110040Z AUTO 00000KT 10SM CLR M03/M04 A3018 RMK AO2 T10281040
KRHP 110020Z AUTO 00000KT 10SM CLR M02/M04 A3017 RMK AO2 T10241037
KRHP 110000Z AUTO 00000KT 10SM CLR M02/M03 A3016 RMK AO2 T10201034
KRHP 102340Z AUTO 00000KT 10SM CLR M02/M04 A3017 RMK AO2 T10181037
KRHP 102320Z AUTO 00000KT 10SM CLR M01/M03 A3017 RMK AO2 T10151035
KRHP 102300Z AUTO 00000KT 10SM CLR M01/M04 A3017 RMK AO2 T10061041
KRHP 102240Z AUTO 36003KT 10SM CLR 00/M04 A3017 RMK AO2 T00001038
KRHP 102220Z AUTO 00000KT 10SM CLR 00/M04 A3016 RMK AO2 T00041036
KRHP 102200Z AUTO 00000KT 5SM HZ CLR 01/M03 A3016 RMK AO2 T00131032
KRHP 102140Z AUTO 00000KT 10SM CLR 04/M06 A3016 RMK AO2 T00391061
KRHP 102120Z AUTO 24004KT 10SM CLR 05/M07 A3016 RMK AO2 T00451073
KRHP 102100Z AUTO 00000KT 10SM CLR 05/M08 A3016 RMK AO2 T00451085
KRHP 102040Z AUTO 24004KT 10SM CLR 05/M07 A3016 RMK AO2 T00451072
KRHP 102020Z AUTO 24005KT 10SM CLR 04/M06 A3016 RMK AO2 T00441060
KRHP 102000Z AUTO 23005KT 10SM CLR 04/M06 A3016 RMK AO2 T00401057
KRHP 101940Z AUTO 27005KT 10SM CLR 04/M05 A3016 RMK AO2 T00361053
KRHP 101920Z AUTO 00000KT 10SM CLR 03/M06 A3016 RMK AO2 T00321061
KRHP 101900Z AUTO 00000KT 10SM CLR 03/M07 A3017 RMK AO2 T00301066
KRHP 101840Z AUTO 00000KT 10SM CLR 03/M06 A3017 RMK AO2 T00251060
KRHP 101820Z AUTO 00000KT 10SM CLR 02/M06 A3018 RMK AO2 T00201063
KRHP 101800Z AUTO 25004KT 10SM CLR 02/M06 A3019 RMK AO2 T00211061
KRHP 101740Z AUTO 28004KT 10SM CLR 02/M06 A3020 RMK AO2 T00151058
KRHP 101720Z AUTO 28003KT 10SM CLR 02/M06 A3021 RMK AO2 T00161063
KRHP 101700Z AUTO 23003KT 10SM CLR 01/M06 A3022 RMK AO2 T00101060
KRHP 101640Z AUTO 25003KT 10SM CLR 01/M06 A3023 RMK AO2 T00051063
KRHP 101620Z AUTO 00000KT 10SM CLR 00/M07 A3023 RMK AO2 T10011075
KRHP 101600Z AUTO 00000KT 10SM CLR M01/M07 A3023 RMK AO2 T10071066
KRHP 101540Z AUTO 00000KT 10SM CLR M01/M07 A3023 RMK AO2 T10141072
KRHP 101520Z AUTO 00000KT 10SM CLR M02/M07 A3023 RMK AO2 T10201067
KRHP 101500Z AUTO 00000KT 10SM CLR M02/M07 A3023 RMK AO2 T10191069
KRHP 101440Z AUTO 00000KT 10SM CLR M02/M07 A3023 RMK AO2 T10251066
KRHP 101420Z AUTO 11003KT 10SM CLR M04/M06 A3022 RMK AO2 T10381062
KRHP 101400Z AUTO 00000KT 10SM CLR M05/M07 A3023 RMK AO2 T10501066
KRHP 101340Z AUTO 00000KT 10SM CLR M06/M07 A3022 RMK AO2 T10611066
KRHP 101320Z AUTO 00000KT 7SM CLR M07/M07 A3022 RMK AO2 T10681071
KRHP 101300Z AUTO 00000KT 10SM CLR M08/M08 A3021 RMK AO2 T10761082
KRHP 101240Z AUTO 00000KT 10SM CLR M07/M08 A3020 RMK AO2 T10721076
KRHP 101220Z AUTO 00000KT 10SM CLR M07/M08 A3020 RMK AO2 T10751080
KRHP 101200Z AUTO 00000KT 10SM CLR M07/M07 A3018 RMK AO2 T10691073
KRHP 101140Z AUTO 00000KT 10SM CLR M07/M07 A3017 RMK AO2 T10681074
KRHP 101120Z AUTO 00000KT 10SM CLR M06/M07 A3017 RMK AO2 T10631072
KRHP 101100Z AUTO 00000KT 10SM CLR M06/M07 A3016 RMK AO2 T10651074
KRHP 101040Z AUTO 00000KT 10SM CLR M06/M07 A3015 RMK AO2 T10611071
KRHP 101020Z AUTO 00000KT 10SM CLR M07/M08 A3014 RMK AO2 T10661079
KRHP 101000Z AUTO 00000KT 10SM CLR M05/M07 A3013 RMK AO2 T10531070
KRHP 100940Z AUTO 00000KT 10SM CLR M05/M07 A3013 RMK AO2 T10461073
KRHP 100920Z AUTO 10004KT 10SM CLR M03/M08 A3013 RMK AO2 T10311083
KRHP 100900Z AUTO 08003KT 10SM CLR M03/M08 A3013 RMK AO2 T10351076
KRHP 100840Z AUTO 00000KT 10SM CLR M03/M07 A3012 RMK AO2 T10321074
KRHP 100820Z AUTO 04005KT 10SM SCT034 M03/M08 A3012 RMK AO2 T10281077
KRHP 100800Z AUTO 00000KT 10SM SCT034 M02/M08 A3012 RMK AO2 T10231080
KRHP 100740Z AUTO 00000KT 10SM BKN036 M02/M08 A3011 RMK AO2 T10201081
KRHP 100720Z AUTO 00000KT 10SM BKN036 M02/M08 A3010 RMK AO2 T10211080
KRHP 100700Z AUTO 00000KT 10SM OVC034 M02/M08 A3010 RMK AO2 T10201081
KRHP 100640Z AUTO 36005KT 10SM OVC038 M02/M08 A3010 RMK AO2 T10191085
KRHP 100620Z AUTO 00000KT 10SM OVC038 M02/M08 A3010 RMK AO2 T10181082
KRHP 100600Z AUTO 34005KT 10SM OVC040 M02/M08 A3011 RMK AO2 T10171085
KRHP 100540Z AUTO 02005KT 10SM OVC038 M01/M08 A3011 RMK AO2 T10151084
KRHP 100520Z AUTO 11003KT 10SM OVC038 M01/M08 A3010 RMK AO2 T10141084
KRHP 100500Z AUTO 00000KT 10SM OVC040 M01/M08 A3010 RMK AO2 T10131082
KRHP 100440Z AUTO 00000KT 10SM OVC040 M01/M08 A3010 RMK AO2 T10131083
KRHP 100420Z AUTO 33006G16KT 290V360 10SM OVC042 M01/M08 A3009 RMK AO2 T10121085
KRHP 100400Z AUTO 35005G15KT 10SM SCT040 BKN047 M01/M09 A3008 RMK AO2 T10131090
KRHP 100340Z AUTO 00000KT 10SM BKN043 BKN050 M01/M09 A3008 RMK AO2 T10131086
KRHP 100320Z AUTO 36007KT 310V030 10SM OVC043 M01/M07 A3007 RMK AO2 T10111073
KRHP 100300Z AUTO 00000KT 10SM OVC043 M01/M08 A3006 RMK AO2 T10101077
KRHP 100240Z AUTO 32006KT 280V350 10SM OVC043 M01/M07 A3006 RMK AO2 T10081074
KRHP 100220Z AUTO 32003KT 10SM OVC043 M01/M07 A3005 RMK AO2 T10061068
KRHP 100200Z AUTO 00000KT 10SM OVC043 00/M07 A3003 RMK AO2 T10051066
KRHP 100140Z AUTO 33005KT 10SM BKN041 OVC047 00/M06 A3002 RMK AO2 T00001062
KRHP 100120Z AUTO 28007G18KT 10SM -SN BKN043 OVC050 00/M07 A3002 RMK AO2 T00011067